createdAt,value
2023-01-17T00:02:23.407Z,97614.92
2023-01-17T00:05:11.245Z,97613.84
2023-01-17T00:07:58.250Z,97614.95
2023-01-17T00:10:30.021Z,97611.33
2023-01-17T00:13:02.635Z,97602.53
2023-01-17T00:15:31.780Z,97603.08
2023-01-17T00:18:00.323Z,97597.98
2023-01-17T00:20:50.223Z,97592.98
2023-01-17T00:23:40.241Z,97594.10
2023-01-17T00:26:16.916Z,97591.89
2023-01-17T00:28:46.398Z,97584.05
2023-01-17T00:31:16.830Z,97581.86
2023-01-17T00:33:45.769Z,97575.75
2023-01-17T00:36:14.647Z,97574.08
2023-01-17T00:38:43.941Z,97571.92
2023-01-17T00:41:14.514Z,97569.44
2023-01-17T00:44:01.795Z,97566.60
2023-01-17T00:46:48.913Z,97564.20
2023-01-17T00:49:36.122Z,97562.95
2023-01-17T00:52:23.855Z,97553.81
2023-01-17T00:55:11.259Z,97534.05
2023-01-17T00:57:58.481Z,97508.71
2023-01-17T01:00:46.001Z,97502.99
2023-01-17T01:03:33.413Z,97486.38
2023-01-17T01:06:23.902Z,97484.77
2023-01-17T01:09:11.339Z,97505.21
2023-01-17T01:11:58.470Z,97527.79
2023-01-17T01:14:45.704Z,97527.93
2023-01-17T01:17:32.864Z,97526.92
2023-01-17T01:20:20.112Z,97522.66
2023-01-17T01:23:07.579Z,97519.47
2023-01-17T01:25:55.159Z,97518.94
2023-01-17T01:28:42.666Z,97517.48
2023-01-17T01:31:30.011Z,97516.05
2023-01-17T01:33:58.505Z,97508.11
2023-01-17T01:36:26.968Z,97501.36
2023-01-17T01:38:57.029Z,97495.65
2023-01-17T01:41:26.200Z,97495.15
2023-01-17T01:43:56.249Z,97498.81
2023-01-17T01:46:30.673Z,97496.23
2023-01-17T01:49:11.445Z,97496.71
2023-01-17T01:51:43.807Z,97489.65
2023-01-17T01:54:20.031Z,97489.25
2023-01-17T01:56:50.991Z,97479.64
2023-01-17T01:59:22.946Z,97474.89
2023-01-17T02:01:55.460Z,97468.83
2023-01-17T02:04:26.651Z,97469.00
2023-01-17T02:07:21.894Z,97473.17
2023-01-17T02:09:50.429Z,97473.65
2023-01-17T02:12:21.527Z,97459.25
2023-01-17T02:14:50.490Z,97457.19
2023-01-17T02:17:49.046Z,97451.64
2023-01-17T02:20:29.428Z,97442.78
2023-01-17T02:23:23.395Z,97439.33
2023-01-17T02:26:01.176Z,97435.34
2023-01-17T02:29:07.376Z,97425.33
2023-01-17T02:31:39.734Z,97419.50
2023-01-17T02:34:22.960Z,97424.76
2023-01-17T02:37:01.479Z,97423.77
2023-01-17T02:39:37.722Z,97423.51
2023-01-17T02:42:12.073Z,97419.86
2023-01-17T02:44:44.633Z,97422.58
2023-01-17T02:47:22.398Z,97431.26
2023-01-17T02:49:56.648Z,97437.40
2023-01-17T02:52:51.233Z,97444.46
2023-01-17T02:55:31.786Z,97435.23
2023-01-17T02:58:03.251Z,97420.80
2023-01-17T03:00:56.818Z,97417.11
2023-01-17T03:03:28.478Z,97415.34
2023-01-17T03:06:12.096Z,97415.11
2023-01-17T03:08:43.681Z,97419.21
2023-01-17T03:11:13.634Z,97419.63
2023-01-17T03:13:42.516Z,97417.70
2023-01-17T03:16:19.135Z,97418.55
2023-01-17T03:18:47.726Z,97416.61
2023-01-17T03:21:16.929Z,97411.98
2023-01-17T03:23:45.523Z,97406.57
2023-01-17T03:26:14.002Z,97405.85
2023-01-17T03:28:42.756Z,97402.36
2023-01-17T03:31:15.905Z,97403.52
2023-01-17T03:33:44.362Z,97405.39
2023-01-17T03:36:13.017Z,97399.83
2023-01-17T03:38:41.697Z,97396.46
2023-01-17T03:41:10.187Z,97395.95
2023-01-17T03:43:39.085Z,97401.32
2023-01-17T03:46:19.166Z,97400.92
2023-01-17T03:48:48.681Z,97402.48
2023-01-17T03:51:17.942Z,97398.96
2023-01-17T03:53:47.356Z,97400.61
2023-01-17T03:56:16.068Z,97404.23
2023-01-17T03:58:44.514Z,97406.85
2023-01-17T04:01:13.786Z,97399.80
2023-01-17T04:03:42.508Z,97398.27
2023-01-17T04:06:11.076Z,97394.34
2023-01-17T04:08:39.719Z,97397.10
2023-01-17T04:11:08.220Z,97397.17
2023-01-17T04:13:36.681Z,97399.05
2023-01-17T04:16:05.835Z,97394.64
2023-01-17T04:18:34.363Z,97392.21
2023-01-17T04:21:02.881Z,97384.98
2023-01-17T04:23:32.381Z,97384.52
2023-01-17T04:26:01.193Z,97385.06
2023-01-17T04:28:32.015Z,97387.58
2023-01-17T04:31:00.968Z,97386.27
2023-01-17T04:33:30.081Z,97387.36
2023-01-17T04:35:58.527Z,97381.95
2023-01-17T04:38:27.273Z,97382.36
2023-01-17T04:40:55.777Z,97380.71
2023-01-17T04:43:24.379Z,97378.76
2023-01-17T04:45:57.651Z,97374.84
2023-01-17T04:48:27.467Z,97379.54
2023-01-17T04:51:01.591Z,97379.16
2023-01-17T04:53:30.129Z,97378.77
2023-01-17T04:55:58.945Z,97383.59
2023-01-17T04:58:27.985Z,97383.09
2023-01-17T05:00:56.467Z,97384.45
2023-01-17T05:03:25.456Z,97385.89
2023-01-17T05:05:54.014Z,97388.77
2023-01-17T05:08:22.504Z,97390.08
2023-01-17T05:10:50.991Z,97397.20
2023-01-17T05:13:19.761Z,97400.34
2023-01-17T05:15:48.351Z,97400.39
2023-01-17T05:18:18.948Z,97407.39
2023-01-17T05:20:47.576Z,97412.23
2023-01-17T05:23:16.074Z,97414.02
2023-01-17T05:25:45.324Z,97411.90
2023-01-17T05:28:14.398Z,97406.68
2023-01-17T05:30:42.957Z,97413.02
2023-01-17T05:33:11.527Z,97415.75
2023-01-17T05:35:40.042Z,97411.14
2023-01-17T05:38:08.495Z,97414.43
2023-01-17T05:40:37.070Z,97413.45
2023-01-17T05:43:05.804Z,97419.05
2023-01-17T05:45:35.228Z,97417.73
2023-01-17T05:48:04.792Z,97424.65
2023-01-17T05:50:38.643Z,97422.10
2023-01-17T05:53:13.065Z,97417.61
2023-01-17T05:55:43.516Z,97423.89
2023-01-17T05:58:17.606Z,97417.06
2023-01-17T06:00:47.159Z,97424.52
2023-01-17T06:03:28.516Z,97428.89
2023-01-17T06:05:57.181Z,97433.52
2023-01-17T06:08:25.708Z,97434.10
2023-01-17T06:10:54.118Z,97433.02
2023-01-17T06:13:23.463Z,97431.79
2023-01-17T06:15:52.140Z,97432.52
2023-01-17T06:18:20.881Z,97431.40
2023-01-17T06:20:57.129Z,97428.06
2023-01-17T06:23:25.935Z,97429.80
2023-01-17T06:25:54.487Z,97436.32
2023-01-17T06:28:24.105Z,97438.98
2023-01-17T06:30:52.660Z,97437.35
2023-01-17T06:33:21.189Z,97435.44
2023-01-17T06:35:51.229Z,97437.62
2023-01-17T06:38:20.038Z,97437.09
2023-01-17T06:40:48.630Z,97438.84
2023-01-17T06:43:17.170Z,97441.77
2023-01-17T06:45:45.678Z,97444.20
2023-01-17T06:48:14.714Z,97446.11
2023-01-17T06:50:44.142Z,97443.10
2023-01-17T06:53:12.565Z,97443.71
2023-01-17T06:55:41.691Z,97451.64
2023-01-17T06:58:10.502Z,97451.56
2023-01-17T07:00:40.892Z,97453.40
2023-01-17T07:03:22.527Z,97454.78
2023-01-17T07:05:51.593Z,97449.62
2023-01-17T07:08:20.898Z,97455.78
2023-01-17T07:10:49.573Z,97457.77
2023-01-17T07:13:18.101Z,97459.71
2023-01-17T07:15:46.732Z,97463.73
2023-01-17T07:18:16.484Z,97470.30
2023-01-17T07:20:45.029Z,97474.23
2023-01-17T07:23:14.276Z,97471.19
2023-01-17T07:25:42.942Z,97475.12
2023-01-17T07:28:11.380Z,97471.98
2023-01-17T07:30:39.930Z,97480.89
2023-01-17T07:33:09.572Z,97486.19
2023-01-17T07:35:38.956Z,97486.11
2023-01-17T07:38:11.775Z,97489.04
2023-01-17T07:40:42.436Z,97491.39
2023-01-17T07:43:14.448Z,97495.33
2023-01-17T07:45:51.449Z,97497.63
2023-01-17T07:48:22.366Z,97499.73
2023-01-17T07:50:58.403Z,97502.36
2023-01-17T07:53:30.041Z,97502.90
2023-01-17T07:56:04.982Z,97511.05
2023-01-17T07:58:34.723Z,97511.69
2023-01-17T08:01:09.078Z,97516.47
2023-01-17T08:03:42.172Z,97517.35
2023-01-17T08:06:22.639Z,97520.98
2023-01-17T08:08:51.508Z,97522.06
2023-01-17T08:11:19.967Z,97524.11
2023-01-17T08:13:48.781Z,97528.08
2023-01-17T08:16:17.271Z,97525.97
2023-01-17T08:18:45.793Z,97524.85
2023-01-17T08:21:17.073Z,97530.08
2023-01-17T08:23:49.775Z,97527.16
2023-01-17T08:26:24.103Z,97527.13
2023-01-17T08:29:02.267Z,97522.55
2023-01-17T08:31:34.177Z,97531.95
2023-01-17T08:34:02.826Z,97530.60
2023-01-17T08:36:31.565Z,97534.91
2023-01-17T08:39:00.360Z,97548.48
2023-01-17T08:41:28.989Z,97544.36
2023-01-17T08:43:58.007Z,97549.29
2023-01-17T08:46:27.271Z,97556.50
2023-01-17T08:48:59.111Z,97551.13
2023-01-17T08:51:28.921Z,97552.15
2023-01-17T08:53:57.583Z,97561.22
2023-01-17T08:56:27.175Z,97566.13
2023-01-17T08:58:55.704Z,97569.98
2023-01-17T09:01:24.537Z,97572.80
2023-01-17T09:03:53.159Z,97575.20
2023-01-17T09:06:22.425Z,97581.22
2023-01-17T09:08:54.951Z,97589.54
2023-01-17T09:11:23.527Z,97580.98
2023-01-17T09:13:52.007Z,97582.80
2023-01-17T09:16:20.687Z,97588.23
2023-01-17T09:18:49.234Z,97593.45
2023-01-17T09:21:18.972Z,97604.17
2023-01-17T09:23:47.413Z,97599.66
2023-01-17T09:26:25.626Z,97602.23
2023-01-17T09:28:55.348Z,97603.87
2023-01-17T09:31:25.029Z,97606.71
2023-01-17T09:33:55.498Z,97610.84
2023-01-17T09:36:27.193Z,97619.48
2023-01-17T09:38:58.409Z,97621.60
2023-01-17T09:41:31.347Z,97621.83
2023-01-17T09:44:17.875Z,97622.89
2023-01-17T09:46:49.284Z,97619.79
2023-01-17T09:49:36.243Z,97628.13
2023-01-17T09:52:07.465Z,97629.61
2023-01-17T09:54:41.030Z,97629.82
2023-01-17T09:57:35.070Z,97632.59
2023-01-17T10:00:34.449Z,97627.40
2023-01-17T10:03:28.231Z,97628.84
2023-01-17T10:06:02.956Z,97623.23
2023-01-17T10:09:00.914Z,97623.71
2023-01-17T10:12:00.893Z,97624.72
2023-01-17T10:15:07.435Z,97630.34
2023-01-17T10:17:49.202Z,97629.58
2023-01-17T10:20:53.963Z,97635.75
2023-01-17T10:23:50.570Z,97631.73
2023-01-17T10:26:26.408Z,97632.38
2023-01-17T10:29:02.827Z,97630.44
2023-01-17T10:31:42.778Z,97621.34
2023-01-17T10:34:20.113Z,97627.69
2023-01-17T10:37:03.854Z,97630.44
2023-01-17T10:39:33.347Z,97638.71
2023-01-17T10:42:18.526Z,97637.56
2023-01-17T10:44:56.232Z,97641.73
2023-01-17T10:47:28.082Z,97643.60
2023-01-17T10:50:02.228Z,97650.46
2023-01-17T10:52:43.635Z,97647.16
2023-01-17T10:55:36.981Z,97651.33
2023-01-17T10:58:08.992Z,97648.48
2023-01-17T11:00:58.704Z,97648.02
2023-01-17T11:03:28.846Z,97646.33
2023-01-17T11:06:18.794Z,97649.23
2023-01-17T11:08:58.830Z,97651.10
2023-01-17T11:11:33.142Z,97649.98
2023-01-17T11:14:18.871Z,97649.41
2023-01-17T11:17:03.010Z,97650.45
2023-01-17T11:19:35.655Z,97647.83
2023-01-17T11:22:07.048Z,97650.41
2023-01-17T11:24:39.225Z,97653.88
2023-01-17T11:27:23.133Z,97650.72
2023-01-17T11:30:20.182Z,97650.57
2023-01-17T11:33:00.847Z,97648.34
2023-01-17T11:35:30.716Z,97652.95
2023-01-17T11:38:15.110Z,97653.13
2023-01-17T11:40:45.769Z,97651.33
2023-01-17T11:43:22.121Z,97651.96
2023-01-17T11:46:06.207Z,97654.70
2023-01-17T11:48:37.769Z,97653.80
2023-01-17T11:51:31.536Z,97645.88
2023-01-17T11:54:18.646Z,97645.67
2023-01-17T11:56:47.120Z,97652.08
2023-01-17T11:59:43.523Z,97648.84
2023-01-17T12:02:43.116Z,97647.77
2023-01-17T12:05:39.961Z,97638.21
2023-01-17T12:08:53.400Z,97654.41
2023-01-17T12:11:32.553Z,97659.23
2023-01-17T12:14:19.771Z,97656.98
2023-01-17T12:17:08.292Z,97651.50
2023-01-17T12:20:06.304Z,97661.48
2023-01-17T12:22:56.857Z,97663.52
2023-01-17T12:25:47.531Z,97665.05
2023-01-17T12:28:25.522Z,97658.93
2023-01-17T12:31:35.282Z,97668.13
2023-01-17T12:34:25.363Z,97669.26
2023-01-17T12:37:08.717Z,97672.38
2023-01-17T12:39:41.535Z,97668.08
2023-01-17T12:42:19.056Z,97665.33
2023-01-17T12:45:07.940Z,97656.63
2023-01-17T12:47:45.656Z,97661.19
2023-01-17T12:50:37.700Z,97661.60
2023-01-17T12:53:26.679Z,97664.50
2023-01-17T12:56:17.603Z,97669.11
2023-01-17T12:58:55.110Z,97671.27
2023-01-17T13:01:40.125Z,97675.81
2023-01-17T13:04:46.871Z,97684.10
2023-01-17T13:07:41.480Z,97675.80
2023-01-17T13:10:29.742Z,97683.98
2023-01-17T13:13:12.201Z,97695.85
2023-01-17T13:15:43.273Z,97698.42
2023-01-17T13:18:23.014Z,97703.15
2023-01-17T13:21:25.571Z,97705.91
2023-01-17T13:24:02.512Z,97708.42
2023-01-17T13:26:40.519Z,97711.00
2023-01-17T13:29:19.777Z,97716.98
2023-01-17T13:31:51.305Z,97717.88
2023-01-17T13:34:55.298Z,97719.35
2023-01-17T13:37:26.814Z,97722.32
2023-01-17T13:40:06.530Z,97731.95
2023-01-17T13:43:00.585Z,97739.45
2023-01-17T13:45:32.396Z,97748.56
2023-01-17T13:48:14.990Z,97752.40
2023-01-17T13:50:46.226Z,97758.32
2023-01-17T13:53:39.654Z,97765.54
2023-01-17T13:56:25.036Z,97767.22
2023-01-17T13:58:58.165Z,97776.26
2023-01-17T14:01:46.931Z,97777.05
2023-01-17T14:04:15.483Z,97782.00
2023-01-17T14:06:55.712Z,97781.56
2023-01-17T14:09:45.546Z,97785.48
2023-01-17T14:12:15.301Z,97791.38
2023-01-17T14:14:48.155Z,97789.42
2023-01-17T14:17:16.702Z,97798.70
2023-01-17T14:19:51.213Z,97797.22
2023-01-17T14:22:20.280Z,97806.68
2023-01-17T14:25:19.951Z,97811.63
2023-01-17T14:28:04.129Z,97814.80
2023-01-17T14:30:32.581Z,97823.85
2023-01-17T14:33:10.733Z,97825.39
2023-01-17T14:35:52.675Z,97832.02
2023-01-17T14:38:26.819Z,97833.25
2023-01-17T14:41:00.246Z,97834.27
2023-01-17T14:43:33.299Z,97839.83
2023-01-17T14:46:08.376Z,97841.05
2023-01-17T14:48:41.261Z,97846.50
2023-01-17T14:51:19.044Z,97862.23
2023-01-17T14:54:02.592Z,97860.86
2023-01-17T14:56:35.366Z,97863.73
2023-01-17T14:59:17.511Z,97868.27
2023-01-17T15:02:08.259Z,97873.01
2023-01-17T15:04:40.026Z,97878.38
2023-01-17T15:07:16.601Z,97886.76
2023-01-17T15:09:46.826Z,97892.33
2023-01-17T15:12:15.447Z,97896.88
2023-01-17T15:14:46.697Z,97898.95
2023-01-17T15:17:26.654Z,97904.89
2023-01-17T15:20:01.877Z,97913.27
2023-01-17T15:22:31.030Z,97915.38
2023-01-17T15:25:00.742Z,97917.77
2023-01-17T15:27:29.560Z,97922.15
2023-01-17T15:30:02.604Z,97918.66
2023-01-17T15:32:32.120Z,97924.04
2023-01-17T15:35:03.005Z,97928.14
2023-01-17T15:37:42.216Z,97928.34
2023-01-17T15:40:22.860Z,97931.59
2023-01-17T15:42:56.898Z,97937.58
2023-01-17T15:45:31.974Z,97942.63
2023-01-17T15:48:39.417Z,97949.00
2023-01-17T15:51:11.229Z,97956.44
2023-01-17T15:53:43.073Z,97960.92
2023-01-17T15:56:38.204Z,97961.47
2023-01-17T15:59:30.380Z,97965.64
2023-01-17T16:01:59.459Z,97968.03
2023-01-17T16:04:37.648Z,97968.91
2023-01-17T16:07:22.005Z,97973.75
2023-01-17T16:09:50.552Z,97974.69
2023-01-17T16:12:19.110Z,97974.81
2023-01-17T16:15:06.262Z,97976.39
2023-01-17T16:17:36.862Z,97976.77
2023-01-17T16:20:16.262Z,97973.45
2023-01-17T16:22:44.791Z,97974.66
2023-01-17T16:25:19.274Z,97979.44
2023-01-17T16:27:48.786Z,97981.70
2023-01-17T16:30:22.182Z,97986.63
2023-01-17T16:32:50.792Z,97985.86
2023-01-17T16:35:24.811Z,97990.41
2023-01-17T16:37:56.224Z,97990.71
2023-01-17T16:40:27.785Z,97988.58
2023-01-17T16:42:57.439Z,97991.48
2023-01-17T16:45:26.467Z,97985.55
2023-01-17T16:47:54.996Z,97989.15
2023-01-17T16:50:25.264Z,97992.55
2023-01-17T16:52:56.517Z,97991.02
2023-01-17T16:55:26.096Z,97992.14
2023-01-17T16:57:58.388Z,97998.39
2023-01-17T17:00:27.183Z,97999.96
2023-01-17T17:02:55.649Z,97996.39
2023-01-17T17:05:24.163Z,97992.33
2023-01-17T17:07:53.389Z,97986.23
2023-01-17T17:10:25.411Z,97983.64
2023-01-17T17:12:54.376Z,97980.14
2023-01-17T17:15:23.060Z,97973.98
2023-01-17T17:17:51.716Z,97980.68
2023-01-17T17:20:20.315Z,97981.27
2023-01-17T17:22:52.402Z,97984.08
2023-01-17T17:25:20.861Z,97983.10
2023-01-17T17:27:49.321Z,97981.25
2023-01-17T17:30:18.334Z,97983.61
2023-01-17T17:32:47.875Z,97985.41
2023-01-17T17:35:16.493Z,97987.59
2023-01-17T17:37:45.037Z,97986.63
2023-01-17T17:40:13.595Z,97993.60
2023-01-17T17:42:43.273Z,97999.75
2023-01-17T17:45:12.058Z,98003.96
2023-01-17T17:47:40.685Z,98014.19
2023-01-17T17:50:09.841Z,98019.99
2023-01-17T17:52:38.404Z,98018.23
2023-01-17T17:55:07.385Z,98027.62
2023-01-17T17:57:35.871Z,98026.23
2023-01-17T18:00:05.834Z,98024.45
2023-01-17T18:02:35.276Z,98017.93
2023-01-17T18:05:04.234Z,98009.84
2023-01-17T18:07:33.247Z,98008.83
2023-01-17T18:10:01.732Z,98008.71
2023-01-17T18:12:30.148Z,98012.09
2023-01-17T18:14:58.584Z,98017.16
2023-01-17T18:17:27.109Z,98014.36
2023-01-17T18:19:55.653Z,98014.23
2023-01-17T18:22:24.602Z,98019.06
2023-01-17T18:24:53.128Z,98020.02
2023-01-17T18:27:21.595Z,98024.90
2023-01-17T18:29:50.188Z,98033.25
2023-01-17T18:32:19.151Z,98035.91
2023-01-17T18:34:47.756Z,98046.20
2023-01-17T18:37:16.164Z,98051.91
2023-01-17T18:39:44.658Z,98058.92
2023-01-17T18:42:13.213Z,98065.55
2023-01-17T18:44:41.740Z,98067.52
2023-01-17T18:47:11.265Z,98071.23
2023-01-17T18:49:39.860Z,98076.98
2023-01-17T18:52:09.533Z,98080.10
2023-01-17T18:54:38.180Z,98081.30
2023-01-17T18:57:06.675Z,98081.27
2023-01-17T18:59:35.184Z,98087.35
2023-01-17T19:02:04.051Z,98083.52
2023-01-17T19:04:34.192Z,98080.02
2023-01-17T19:07:02.692Z,98083.96
2023-01-17T19:09:32.384Z,98089.84
2023-01-17T19:12:00.923Z,98090.19
2023-01-17T19:14:29.408Z,98087.75
2023-01-17T19:16:57.823Z,98090.55
2023-01-17T19:19:26.404Z,98091.15
2023-01-17T19:21:54.981Z,98090.48
2023-01-17T19:24:23.512Z,98095.50
2023-01-17T19:26:53.546Z,98102.11
2023-01-17T19:29:22.856Z,98097.44
2023-01-17T19:31:51.911Z,98093.13
2023-01-17T19:34:20.634Z,98094.52
2023-01-17T19:36:49.146Z,98098.51
2023-01-17T19:39:17.602Z,98096.92
2023-01-17T19:41:46.407Z,98102.83
2023-01-17T19:44:15.413Z,98102.30
2023-01-17T19:46:45.637Z,98097.98
2023-01-17T19:49:16.649Z,98093.48
2023-01-17T19:51:45.110Z,98098.50
2023-01-17T19:54:15.475Z,98099.55
2023-01-17T19:56:43.963Z,98097.14
2023-01-17T19:59:13.988Z,98095.58
2023-01-17T20:01:42.774Z,98099.90
2023-01-17T20:04:13.099Z,98107.18
2023-01-17T20:06:41.563Z,98102.15
2023-01-17T20:09:10.130Z,98105.10
2023-01-17T20:11:39.170Z,98105.10
2023-01-17T20:14:08.068Z,98103.83
2023-01-17T20:16:37.921Z,98102.95
2023-01-17T20:19:06.476Z,98109.06
2023-01-17T20:21:34.980Z,98111.87
2023-01-17T20:24:03.722Z,98115.13
2023-01-17T20:26:36.313Z,98114.45
2023-01-17T20:29:10.828Z,98116.70
2023-01-17T20:31:41.313Z,98120.54
2023-01-17T20:34:12.884Z,98122.61
2023-01-17T20:36:42.732Z,98127.98
2023-01-17T20:39:13.671Z,98131.62
2023-01-17T20:41:44.948Z,98135.79
2023-01-17T20:44:15.549Z,98139.77
2023-01-17T20:46:45.771Z,98147.52
2023-01-17T20:49:18.951Z,98146.14
2023-01-17T20:51:47.946Z,98146.52
2023-01-17T20:54:18.916Z,98146.35
2023-01-17T20:56:48.198Z,98150.65
2023-01-17T20:59:22.566Z,98158.05
2023-01-17T21:01:52.226Z,98158.89
2023-01-17T21:04:26.143Z,98163.02
2023-01-17T21:06:55.665Z,98159.59
2023-01-17T21:09:24.383Z,98158.80
2023-01-17T21:11:54.595Z,98163.09
2023-01-17T21:14:23.438Z,98166.70
2023-01-17T21:16:52.157Z,98163.61
2023-01-17T21:19:21.015Z,98164.84
2023-01-17T21:21:50.356Z,98163.11
2023-01-17T21:24:19.883Z,98167.46
2023-01-17T21:26:51.753Z,98169.35
2023-01-17T21:29:20.579Z,98175.89
2023-01-17T21:31:49.153Z,98183.73
2023-01-17T21:34:17.547Z,98183.42
2023-01-17T21:36:46.143Z,98196.75
2023-01-17T21:39:17.250Z,98201.96
2023-01-17T21:41:48.286Z,98204.41
2023-01-17T21:44:20.248Z,98205.54
2023-01-17T21:46:55.029Z,98208.41
2023-01-17T21:49:24.823Z,98212.43
2023-01-17T21:51:53.414Z,98218.05
2023-01-17T21:54:43.610Z,98220.24
2023-01-17T21:57:33.091Z,98216.71
2023-01-17T22:00:01.644Z,98210.10
2023-01-17T22:02:30.374Z,98205.45
2023-01-17T22:04:59.049Z,98206.42
2023-01-17T22:07:29.270Z,98213.08
2023-01-17T22:09:57.757Z,98212.73
2023-01-17T22:12:26.477Z,98207.36
2023-01-17T22:14:55.211Z,98200.27
2023-01-17T22:17:23.778Z,98200.38
2023-01-17T22:19:52.290Z,98189.04
2023-01-17T22:22:20.802Z,98184.89
2023-01-17T22:24:49.215Z,98176.21
2023-01-17T22:27:17.701Z,98168.98
2023-01-17T22:29:46.221Z,98163.45
2023-01-17T22:32:14.749Z,98159.23
2023-01-17T22:34:43.268Z,98152.30
2023-01-17T22:37:11.747Z,98147.45
2023-01-17T22:39:40.298Z,98147.61
2023-01-17T22:42:08.766Z,98140.02
2023-01-17T22:44:37.266Z,98138.98
2023-01-17T22:47:05.778Z,98147.54
2023-01-17T22:49:34.349Z,98156.93
2023-01-17T22:52:02.826Z,98164.16
2023-01-17T22:54:31.589Z,98164.13
2023-01-17T22:56:59.986Z,98157.06
2023-01-17T22:59:28.541Z,98147.46
2023-01-17T23:01:57.120Z,98145.00
2023-01-17T23:04:26.155Z,98136.41
2023-01-17T23:06:54.871Z,98135.23
2023-01-17T23:09:23.316Z,98138.88
2023-01-17T23:11:54.417Z,98144.05
2023-01-17T23:14:51.567Z,98144.40
2023-01-17T23:17:40.885Z,98138.98
2023-01-17T23:20:11.230Z,98144.38
2023-01-17T23:22:40.263Z,98153.70
2023-01-17T23:25:13.703Z,98155.92
2023-01-17T23:28:03.616Z,98145.92
2023-01-17T23:30:37.070Z,98138.25
2023-01-17T23:33:08.387Z,98144.13
2023-01-17T23:35:42.550Z,98135.14
2023-01-17T23:38:31.009Z,98129.02
2023-01-17T23:41:26.813Z,98128.64
2023-01-17T23:43:57.928Z,98130.77
2023-01-17T23:46:27.492Z,98133.27
2023-01-17T23:48:56.055Z,98135.02
2023-01-17T23:51:24.485Z,98140.56
2023-01-17T23:53:57.631Z,98137.40
2023-01-17T23:56:26.185Z,98132.92
2023-01-17T23:58:54.628Z,98122.58
